Dennisville, New Jersey
Current Conditions -  °F | °C
As of 9:15 PM on Friday 19 Dec 2014 (Local Time) from KWWD Reporting Station
Clear Clear  
Wind Chill: 33°   Ceiling: Unl
Heat Index: 37°   Visibility: 10mi
Dew Point: 23°   Wind: 6mph
Humidity: 56%   Direction: 320°NW
Pressure: 30.17"   Gusts: NA
Location:  39.19°N, 74.82°W
Report Text: KWWD 200215Z AUTO 32005KT 10SM CLR 03/M05 A3017 RMK AO1
Loading
Personal Weather Stations






























Interactive Weather Map New forecast layout! Learn more

10-Day Weather Forecast

Advertisements
Track Severe Weather on mobile